sensor_id;sensor_type;location;lat;lon;timestamp;P1;durP1;ratioP1;P2;durP2;ratioP2
55684;SDS011;41883;49.544;8.646;2023-02-13T11:30:45;9.65;;;7.35;;
55684;SDS011;41883;49.544;8.646;2023-02-13T11:35:40;5.47;;;4.45;;
55684;SDS011;41883;49.544;8.646;2023-02-13T11:40:34;7.68;;;6.03;;
55684;SDS011;41883;49.544;8.646;2023-02-13T11:43:00;7.43;;;6.13;;
55684;SDS011;41883;49.544;8.646;2023-02-13T11:45:25;8.80;;;7.30;;
55684;SDS011;41883;49.544;8.646;2023-02-13T11:47:51;7.80;;;6.30;;
55684;SDS011;41883;49.544;8.646;2023-02-13T11:50:20;8.48;;;6.90;;
55684;SDS011;41883;49.544;8.646;2023-02-13T11:55:37;6.97;;;5.75;;
55684;SDS011;41883;49.544;8.646;2023-02-13T12:00:35;8.48;;;6.63;;
55684;SDS011;41883;49.544;8.646;2023-02-13T12:08:28;12.13;;;8.00;;
55684;SDS011;41883;49.544;8.646;2023-02-13T12:10:55;11.90;;;7.95;;
55684;SDS011;41883;49.544;8.646;2023-02-13T12:13:27;9.65;;;7.35;;
55684;SDS011;41883;49.544;8.646;2023-02-13T12:16:04;9.95;;;7.70;;
55684;SDS011;41883;49.544;8.646;2023-02-13T12:18:41;10.32;;;8.00;;
55684;SDS011;41883;49.544;8.646;2023-02-13T12:24:00;10.20;;;7.60;;
55684;SDS011;41883;49.544;8.646;2023-02-13T12:26:43;12.13;;;7.75;;
55684;SDS011;41883;49.544;8.646;2023-02-13T12:37:28;10.35;;;7.20;;
55684;SDS011;41883;49.544;8.646;2023-02-13T12:49:17;12.65;;;7.97;;
55684;SDS011;41883;49.544;8.646;2023-02-13T12:52:16;11.75;;;8.18;;
55684;SDS011;41883;49.544;8.646;2023-02-13T13:00:38;10.63;;;8.20;;
55684;SDS011;41883;49.544;8.646;2023-02-13T13:05:55;11.45;;;8.00;;
55684;SDS011;41883;49.544;8.646;2023-02-13T13:11:23;9.75;;;6.88;;
55684;SDS011;41883;49.544;8.646;2023-02-13T13:27:18;10.35;;;7.07;;
55684;SDS011;41883;49.544;8.646;2023-02-13T13:29:58;8.43;;;6.00;;
55684;SDS011;41883;49.544;8.646;2023-02-13T13:32:27;13.15;;;8.80;;
55684;SDS011;41883;49.544;8.646;2023-02-13T13:34:54;11.00;;;8.00;;
55684;SDS011;41883;49.544;8.646;2023-02-13T13:37:29;9.00;;;6.63;;
55684;SDS011;41883;49.544;8.646;2023-02-13T13:43:11;10.80;;;7.10;;
55684;SDS011;41883;49.544;8.646;2023-02-13T13:48:38;8.68;;;6.90;;
55684;SDS011;41883;49.544;8.646;2023-02-13T13:51:15;10.65;;;7.90;;
55684;SDS011;41883;49.544;8.646;2023-02-13T13:56:25;9.40;;;6.53;;
55684;SDS011;41883;49.544;8.646;2023-02-13T13:59:17;8.27;;;6.45;;
55684;SDS011;41883;49.544;8.646;2023-02-13T14:01:44;11.27;;;8.32;;
55684;SDS011;41883;49.544;8.646;2023-02-13T14:11:50;9.60;;;6.40;;
55684;SDS011;41883;49.544;8.646;2023-02-13T14:16:55;9.52;;;7.03;;
55684;SDS011;41883;49.544;8.646;2023-02-13T14:25:03;10.95;;;7.97;;
55684;SDS011;41883;49.544;8.646;2023-02-13T14:30:05;11.70;;;8.43;;
55684;SDS011;41883;49.544;8.646;2023-02-13T14:32:50;12.18;;;8.20;;
55684;SDS011;41883;49.544;8.646;2023-02-13T14:35:23;11.85;;;7.90;;
55684;SDS011;41883;49.544;8.646;2023-02-13T14:37:56;10.15;;;6.72;;
55684;SDS011;41883;49.544;8.646;2023-02-13T14:40:28;12.95;;;9.45;;
55684;SDS011;41883;49.544;8.646;2023-02-13T14:45:32;10.75;;;7.43;;
55684;SDS011;41883;49.544;8.646;2023-02-13T14:48:05;12.90;;;8.90;;
55684;SDS011;41883;49.544;8.646;2023-02-13T14:53:22;13.77;;;9.75;;
55684;SDS011;41883;49.544;8.646;2023-02-13T14:55:55;15.07;;;10.75;;
55684;SDS011;41883;49.544;8.646;2023-02-13T15:06:06;20.48;;;13.55;;
55684;SDS011;41883;49.544;8.646;2023-02-13T15:08:58;17.83;;;12.45;;
55684;SDS011;41883;49.544;8.646;2023-02-13T15:11:36;17.08;;;12.18;;
55684;SDS011;41883;49.544;8.646;2023-02-13T15:17:12;18.73;;;13.68;;
55684;SDS011;41883;49.544;8.646;2023-02-13T15:19:43;18.67;;;12.52;;
55684;SDS011;41883;49.544;8.646;2023-02-13T15:22:16;18.05;;;12.73;;
55684;SDS011;41883;49.544;8.646;2023-02-13T15:24:45;14.48;;;10.98;;
55684;SDS011;41883;49.544;8.646;2023-02-13T15:27:18;19.10;;;12.85;;
55684;SDS011;41883;49.544;8.646;2023-02-13T15:30:14;20.50;;;13.23;;
55684;SDS011;41883;49.544;8.646;2023-02-13T15:32:40;20.75;;;14.57;;
55684;SDS011;41883;49.544;8.646;2023-02-13T15:35:13;17.92;;;12.63;;
55684;SDS011;41883;49.544;8.646;2023-02-13T15:37:50;16.10;;;10.95;;
55684;SDS011;41883;49.544;8.646;2023-02-13T15:40:26;14.90;;;9.70;;
55684;SDS011;41883;49.544;8.646;2023-02-13T15:42:54;20.38;;;12.48;;
55684;SDS011;41883;49.544;8.646;2023-02-13T15:45:21;16.90;;;11.50;;
55684;SDS011;41883;49.544;8.646;2023-02-13T15:47:49;17.55;;;12.10;;
55684;SDS011;41883;49.544;8.646;2023-02-13T15:50:17;19.13;;;12.38;;
55684;SDS011;41883;49.544;8.646;2023-02-13T15:52:43;18.60;;;11.52;;
55684;SDS011;41883;49.544;8.646;2023-02-13T15:55:29;13.75;;;9.23;;
55684;SDS011;41883;49.544;8.646;2023-02-13T15:57:58;14.82;;;9.93;;
55684;SDS011;41883;49.544;8.646;2023-02-13T16:02:55;17.05;;;11.60;;
55684;SDS011;41883;49.544;8.646;2023-02-13T16:05:23;15.02;;;10.27;;
55684;SDS011;41883;49.544;8.646;2023-02-13T16:07:51;14.18;;;10.00;;
55684;SDS011;41883;49.544;8.646;2023-02-13T16:10:32;14.65;;;9.77;;
55684;SDS011;41883;49.544;8.646;2023-02-13T16:13:06;13.35;;;9.07;;
55684;SDS011;41883;49.544;8.646;2023-02-13T16:15:40;13.88;;;9.15;;
55684;SDS011;41883;49.544;8.646;2023-02-13T16:18:10;15.25;;;8.98;;
55684;SDS011;41883;49.544;8.646;2023-02-13T16:20:42;11.45;;;7.78;;
55684;SDS011;41883;49.544;8.646;2023-02-13T16:23:15;10.77;;;7.45;;
55684;SDS011;41883;49.544;8.646;2023-02-13T16:25:43;10.40;;;7.07;;
55684;SDS011;41883;49.544;8.646;2023-02-13T16:30:42;9.70;;;6.60;;
55684;SDS011;41883;49.544;8.646;2023-02-13T16:38:23;10.45;;;6.80;;
55684;SDS011;41883;49.544;8.646;2023-02-13T16:43:53;13.60;;;8.38;;
55684;SDS011;41883;49.544;8.646;2023-02-13T16:46:27;10.18;;;6.47;;
55684;SDS011;41883;49.544;8.646;2023-02-13T16:53:57;18.92;;;11.40;;
55684;SDS011;41883;49.544;8.646;2023-02-13T16:56:24;15.00;;;9.63;;
55684;SDS011;41883;49.544;8.646;2023-02-13T16:58:51;15.25;;;9.57;;
55684;SDS011;41883;49.544;8.646;2023-02-13T17:01:38;19.05;;;11.25;;
55684;SDS011;41883;49.544;8.646;2023-02-13T17:04:14;23.33;;;14.15;;
55684;SDS011;41883;49.544;8.646;2023-02-13T17:06:45;19.27;;;12.52;;
55684;SDS011;41883;49.544;8.646;2023-02-13T17:09:10;18.95;;;10.95;;
55684;SDS011;41883;49.544;8.646;2023-02-13T17:11:36;23.83;;;13.77;;
55684;SDS011;41883;49.544;8.646;2023-02-13T17:14:02;22.50;;;13.45;;
55684;SDS011;41883;49.544;8.646;2023-02-13T17:16:27;19.60;;;13.20;;
55684;SDS011;41883;49.544;8.646;2023-02-13T17:18:52;27.23;;;15.55;;
55684;SDS011;41883;49.544;8.646;2023-02-13T17:21:18;23.42;;;14.43;;
55684;SDS011;41883;49.544;8.646;2023-02-13T17:23:43;25.48;;;15.60;;
55684;SDS011;41883;49.544;8.646;2023-02-13T17:26:09;22.13;;;13.77;;
55684;SDS011;41883;49.544;8.646;2023-02-13T17:28:34;25.25;;;14.55;;
55684;SDS011;41883;49.544;8.646;2023-02-13T17:30:59;22.92;;;13.52;;
55684;SDS011;41883;49.544;8.646;2023-02-13T17:33:29;20.27;;;12.70;;
55684;SDS011;41883;49.544;8.646;2023-02-13T17:35:56;17.23;;;11.02;;
55684;SDS011;41883;49.544;8.646;2023-02-13T17:38:21;17.85;;;10.65;;
55684;SDS011;41883;49.544;8.646;2023-02-13T17:40:47;16.85;;;10.48;;
55684;SDS011;41883;49.544;8.646;2023-02-13T17:43:14;13.98;;;9.02;;
55684;SDS011;41883;49.544;8.646;2023-02-13T17:45:41;15.55;;;10.27;;
55684;SDS011;41883;49.544;8.646;2023-02-13T17:48:07;21.15;;;13.95;;
55684;SDS011;41883;49.544;8.646;2023-02-13T17:50:32;18.77;;;11.90;;
55684;SDS011;41883;49.544;8.646;2023-02-13T17:53:03;17.45;;;11.43;;
55684;SDS011;41883;49.544;8.646;2023-02-13T17:55:30;18.60;;;10.50;;
55684;SDS011;41883;49.544;8.646;2023-02-13T17:57:57;16.38;;;10.45;;
55684;SDS011;41883;49.544;8.646;2023-02-13T18:00:24;16.15;;;9.30;;
55684;SDS011;41883;49.544;8.646;2023-02-13T18:02:52;13.90;;;8.57;;
55684;SDS011;41883;49.544;8.646;2023-02-13T18:05:17;13.68;;;8.00;;
55684;SDS011;41883;49.544;8.646;2023-02-13T18:07:44;12.68;;;8.00;;
55684;SDS011;41883;49.544;8.646;2023-02-13T18:10:14;18.63;;;11.05;;
55684;SDS011;41883;49.544;8.646;2023-02-13T18:12:41;19.00;;;10.70;;
55684;SDS011;41883;49.544;8.646;2023-02-13T18:15:08;23.02;;;13.35;;
55684;SDS011;41883;49.544;8.646;2023-02-13T18:17:34;21.85;;;12.27;;
55684;SDS011;41883;49.544;8.646;2023-02-13T18:20:00;20.13;;;12.45;;
55684;SDS011;41883;49.544;8.646;2023-02-13T18:22:25;21.40;;;11.38;;
55684;SDS011;41883;49.544;8.646;2023-02-13T18:24:51;20.15;;;12.70;;
55684;SDS011;41883;49.544;8.646;2023-02-13T18:27:17;19.42;;;11.23;;
55684;SDS011;41883;49.544;8.646;2023-02-13T18:29:42;19.00;;;11.93;;
55684;SDS011;41883;49.544;8.646;2023-02-13T18:32:08;18.08;;;11.60;;
55684;SDS011;41883;49.544;8.646;2023-02-13T18:34:37;15.20;;;9.93;;
55684;SDS011;41883;49.544;8.646;2023-02-13T18:37:03;17.15;;;10.52;;
55684;SDS011;41883;49.544;8.646;2023-02-13T18:39:29;20.42;;;11.13;;
55684;SDS011;41883;49.544;8.646;2023-02-13T18:41:54;17.52;;;9.98;;
55684;SDS011;41883;49.544;8.646;2023-02-13T18:44:20;14.48;;;8.80;;
55684;SDS011;41883;49.544;8.646;2023-02-13T18:46:45;14.27;;;8.60;;
55684;SDS011;41883;49.544;8.646;2023-02-13T18:49:10;11.90;;;7.75;;
55684;SDS011;41883;49.544;8.646;2023-02-13T18:51:36;11.70;;;7.43;;
55684;SDS011;41883;49.544;8.646;2023-02-13T18:54:03;9.65;;;6.30;;
55684;SDS011;41883;49.544;8.646;2023-02-13T18:56:28;8.35;;;5.68;;
55684;SDS011;41883;49.544;8.646;2023-02-13T18:58:54;9.90;;;7.18;;
55684;SDS011;41883;49.544;8.646;2023-02-13T19:01:19;14.32;;;8.35;;
55684;SDS011;41883;49.544;8.646;2023-02-13T19:03:46;16.02;;;10.00;;
55684;SDS011;41883;49.544;8.646;2023-02-13T19:06:14;15.88;;;10.30;;
55684;SDS011;41883;49.544;8.646;2023-02-13T19:08:42;14.70;;;9.57;;
55684;SDS011;41883;49.544;8.646;2023-02-13T19:11:08;16.38;;;10.30;;
55684;SDS011;41883;49.544;8.646;2023-02-13T19:13:36;15.20;;;9.70;;
55684;SDS011;41883;49.544;8.646;2023-02-13T19:16:05;18.63;;;11.40;;
55684;SDS011;41883;49.544;8.646;2023-02-13T19:18:37;23.35;;;13.82;;
55684;SDS011;41883;49.544;8.646;2023-02-13T19:21:04;25.65;;;14.32;;
55684;SDS011;41883;49.544;8.646;2023-02-13T19:23:31;21.80;;;12.27;;
55684;SDS011;41883;49.544;8.646;2023-02-13T19:25:56;18.00;;;9.75;;
55684;SDS011;41883;49.544;8.646;2023-02-13T19:28:22;14.68;;;9.40;;
55684;SDS011;41883;49.544;8.646;2023-02-13T19:30:47;13.05;;;8.30;;
55684;SDS011;41883;49.544;8.646;2023-02-13T19:33:13;10.48;;;7.10;;
55684;SDS011;41883;49.544;8.646;2023-02-13T19:35:38;9.68;;;6.70;;
55684;SDS011;41883;49.544;8.646;2023-02-13T19:38:04;10.35;;;6.40;;
55684;SDS011;41883;49.544;8.646;2023-02-13T19:40:29;9.75;;;6.18;;
55684;SDS011;41883;49.544;8.646;2023-02-13T19:42:55;11.95;;;6.38;;
55684;SDS011;41883;49.544;8.646;2023-02-13T19:45:20;9.35;;;6.45;;
55684;SDS011;41883;49.544;8.646;2023-02-13T19:47:46;8.60;;;5.80;;
55684;SDS011;41883;49.544;8.646;2023-02-13T19:50:11;8.68;;;5.43;;
55684;SDS011;41883;49.544;8.646;2023-02-13T19:52:37;11.75;;;8.02;;
55684;SDS011;41883;49.544;8.646;2023-02-13T19:55:02;11.10;;;7.47;;
55684;SDS011;41883;49.544;8.646;2023-02-13T19:57:28;13.98;;;8.63;;
55684;SDS011;41883;49.544;8.646;2023-02-13T19:59:53;11.68;;;7.78;;
55684;SDS011;41883;49.544;8.646;2023-02-13T20:02:18;13.95;;;9.10;;
55684;SDS011;41883;49.544;8.646;2023-02-13T20:04:45;11.60;;;7.85;;
55684;SDS011;41883;49.544;8.646;2023-02-13T20:07:11;10.07;;;6.63;;
55684;SDS011;41883;49.544;8.646;2023-02-13T20:09:38;9.88;;;6.90;;
55684;SDS011;41883;49.544;8.646;2023-02-13T20:12:04;9.50;;;6.47;;
55684;SDS011;41883;49.544;8.646;2023-02-13T20:14:29;8.57;;;5.80;;
55684;SDS011;41883;49.544;8.646;2023-02-13T20:16:54;8.88;;;5.72;;
55684;SDS011;41883;49.544;8.646;2023-02-13T20:19:22;10.65;;;6.63;;
55684;SDS011;41883;49.544;8.646;2023-02-13T20:21:47;9.15;;;6.35;;
55684;SDS011;41883;49.544;8.646;2023-02-13T20:24:12;9.13;;;6.30;;
55684;SDS011;41883;49.544;8.646;2023-02-13T20:26:38;9.27;;;6.05;;
55684;SDS011;41883;49.544;8.646;2023-02-13T20:29:04;8.85;;;5.50;;
55684;SDS011;41883;49.544;8.646;2023-02-13T20:31:29;9.98;;;5.85;;
55684;SDS011;41883;49.544;8.646;2023-02-13T20:33:57;9.77;;;5.75;;
55684;SDS011;41883;49.544;8.646;2023-02-13T20:36:24;11.02;;;6.88;;
55684;SDS011;41883;49.544;8.646;2023-02-13T20:38:52;9.00;;;6.18;;
55684;SDS011;41883;49.544;8.646;2023-02-13T20:41:20;10.73;;;6.60;;
55684;SDS011;41883;49.544;8.646;2023-02-13T20:43:47;11.57;;;6.57;;
55684;SDS011;41883;49.544;8.646;2023-02-13T20:46:13;10.23;;;6.57;;
55684;SDS011;41883;49.544;8.646;2023-02-13T20:48:41;11.05;;;6.20;;
55684;SDS011;41883;49.544;8.646;2023-02-13T20:51:09;8.52;;;5.13;;
55684;SDS011;41883;49.544;8.646;2023-02-13T20:53:36;8.40;;;5.53;;
55684;SDS011;41883;49.544;8.646;2023-02-13T20:58:27;7.78;;;4.93;;
55684;SDS011;41883;49.544;8.646;2023-02-13T21:00:53;12.00;;;6.97;;
55684;SDS011;41883;49.544;8.646;2023-02-13T21:03:18;12.20;;;7.57;;
55684;SDS011;41883;49.544;8.646;2023-02-13T21:05:43;13.88;;;7.75;;
55684;SDS011;41883;49.544;8.646;2023-02-13T21:08:09;11.63;;;7.50;;
55684;SDS011;41883;49.544;8.646;2023-02-13T21:10:36;10.43;;;6.07;;
55684;SDS011;41883;49.544;8.646;2023-02-13T21:13:01;15.30;;;8.82;;
55684;SDS011;41883;49.544;8.646;2023-02-13T21:15:27;15.05;;;8.70;;
55684;SDS011;41883;49.544;8.646;2023-02-13T21:17:53;13.30;;;7.47;;
55684;SDS011;41883;49.544;8.646;2023-02-13T21:20:18;12.50;;;8.00;;
55684;SDS011;41883;49.544;8.646;2023-02-13T21:22:43;11.60;;;7.20;;
55684;SDS011;41883;49.544;8.646;2023-02-13T21:25:08;13.23;;;7.72;;
55684;SDS011;41883;49.544;8.646;2023-02-13T21:27:34;13.15;;;7.65;;
55684;SDS011;41883;49.544;8.646;2023-02-13T21:29:59;14.70;;;7.55;;
55684;SDS011;41883;49.544;8.646;2023-02-13T21:32:24;11.98;;;7.57;;
55684;SDS011;41883;49.544;8.646;2023-02-13T21:34:50;14.23;;;7.55;;
55684;SDS011;41883;49.544;8.646;2023-02-13T21:37:18;13.45;;;8.13;;
55684;SDS011;41883;49.544;8.646;2023-02-13T21:39:43;11.80;;;7.40;;
55684;SDS011;41883;49.544;8.646;2023-02-13T21:42:08;13.82;;;7.72;;
55684;SDS011;41883;49.544;8.646;2023-02-13T21:44:34;12.45;;;7.68;;
55684;SDS011;41883;49.544;8.646;2023-02-13T21:46:59;11.73;;;7.03;;
55684;SDS011;41883;49.544;8.646;2023-02-13T21:49:24;11.73;;;6.60;;
55684;SDS011;41883;49.544;8.646;2023-02-13T21:51:50;12.10;;;7.03;;
55684;SDS011;41883;49.544;8.646;2023-02-13T21:54:15;12.55;;;7.20;;
55684;SDS011;41883;49.544;8.646;2023-02-13T21:56:41;12.55;;;7.82;;
55684;SDS011;41883;49.544;8.646;2023-02-13T21:59:07;12.65;;;7.50;;
55684;SDS011;41883;49.544;8.646;2023-02-13T22:01:34;10.48;;;6.85;;
55684;SDS011;41883;49.544;8.646;2023-02-13T22:04:02;12.65;;;7.65;;
55684;SDS011;41883;49.544;8.646;2023-02-13T22:06:31;14.35;;;8.90;;
55684;SDS011;41883;49.544;8.646;2023-02-13T22:08:59;15.23;;;8.32;;
55684;SDS011;41883;49.544;8.646;2023-02-13T22:11:26;10.40;;;6.68;;
55684;SDS011;41883;49.544;8.646;2023-02-13T22:13:53;11.40;;;7.07;;
55684;SDS011;41883;49.544;8.646;2023-02-13T22:16:19;15.35;;;9.27;;
55684;SDS011;41883;49.544;8.646;2023-02-13T22:18:44;15.63;;;9.20;;
55684;SDS011;41883;49.544;8.646;2023-02-13T22:21:16;15.68;;;9.50;;
55684;SDS011;41883;49.544;8.646;2023-02-13T22:23:43;15.65;;;9.18;;
55684;SDS011;41883;49.544;8.646;2023-02-13T22:26:16;20.58;;;11.52;;
55684;SDS011;41883;49.544;8.646;2023-02-13T22:28:52;17.92;;;9.85;;
55684;SDS011;41883;49.544;8.646;2023-02-13T22:31:18;14.02;;;8.52;;
55684;SDS011;41883;49.544;8.646;2023-02-13T22:33:45;17.45;;;10.18;;
55684;SDS011;41883;49.544;8.646;2023-02-13T22:36:11;18.60;;;11.18;;
55684;SDS011;41883;49.544;8.646;2023-02-13T22:38:39;18.42;;;10.60;;
55684;SDS011;41883;49.544;8.646;2023-02-13T22:41:09;16.55;;;9.60;;
55684;SDS011;41883;49.544;8.646;2023-02-13T22:43:40;19.02;;;10.20;;
55684;SDS011;41883;49.544;8.646;2023-02-13T22:48:34;19.27;;;10.82;;
55684;SDS011;41883;49.544;8.646;2023-02-13T22:51:06;20.73;;;11.50;;
55684;SDS011;41883;49.544;8.646;2023-02-13T22:53:33;17.10;;;10.45;;
55684;SDS011;41883;49.544;8.646;2023-02-13T22:55:59;15.02;;;9.27;;
55684;SDS011;41883;49.544;8.646;2023-02-13T22:58:26;16.88;;;9.18;;
55684;SDS011;41883;49.544;8.646;2023-02-13T23:00:51;18.63;;;10.05;;
55684;SDS011;41883;49.544;8.646;2023-02-13T23:03:17;16.73;;;10.00;;
55684;SDS011;41883;49.544;8.646;2023-02-13T23:05:42;13.32;;;8.45;;
55684;SDS011;41883;49.544;8.646;2023-02-13T23:08:07;13.52;;;8.55;;
55684;SDS011;41883;49.544;8.646;2023-02-13T23:10:33;13.85;;;8.23;;
55684;SDS011;41883;49.544;8.646;2023-02-13T23:12:58;14.30;;;8.07;;
55684;SDS011;41883;49.544;8.646;2023-02-13T23:15:24;16.63;;;9.52;;
55684;SDS011;41883;49.544;8.646;2023-02-13T23:17:49;15.35;;;9.50;;
55684;SDS011;41883;49.544;8.646;2023-02-13T23:20:33;18.23;;;10.45;;
55684;SDS011;41883;49.544;8.646;2023-02-13T23:22:58;14.40;;;9.27;;
55684;SDS011;41883;49.544;8.646;2023-02-13T23:25:23;17.25;;;10.10;;
55684;SDS011;41883;49.544;8.646;2023-02-13T23:27:49;15.93;;;9.80;;
55684;SDS011;41883;49.544;8.646;2023-02-13T23:30:15;16.55;;;8.93;;
55684;SDS011;41883;49.544;8.646;2023-02-13T23:32:43;12.45;;;7.72;;
55684;SDS011;41883;49.544;8.646;2023-02-13T23:35:08;13.15;;;7.38;;
55684;SDS011;41883;49.544;8.646;2023-02-13T23:37:34;10.27;;;6.45;;
55684;SDS011;41883;49.544;8.646;2023-02-13T23:40:00;10.55;;;6.03;;
55684;SDS011;41883;49.544;8.646;2023-02-13T23:42:25;11.93;;;5.78;;
55684;SDS011;41883;49.544;8.646;2023-02-13T23:44:50;11.43;;;5.38;;
55684;SDS011;41883;49.544;8.646;2023-02-13T23:47:16;9.32;;;5.72;;
55684;SDS011;41883;49.544;8.646;2023-02-13T23:49:41;9.23;;;5.32;;
55684;SDS011;41883;49.544;8.646;2023-02-13T23:52:06;10.35;;;6.35;;
55684;SDS011;41883;49.544;8.646;2023-02-13T23:54:32;13.32;;;7.82;;
55684;SDS011;41883;49.544;8.646;2023-02-13T23:56:57;12.30;;;7.47;;
55684;SDS011;41883;49.544;8.646;2023-02-13T23:59:22;12.60;;;8.25;;
